Waldo, Ohio
Current Conditions -  °F | °C
As of 8:53 AM on Monday 24 Nov 2014 (Local Time) from KMNN Reporting Station
Broken Clouds Broken Clouds  
Wind Chill: 59°   Ceiling: 7500
Heat Index: 59°   Visibility: 9mi
Dew Point: 53°   Wind: 26mph
Humidity: 81%   Direction: 190°S
Pressure: 29.25"   Gusts: 37mph
Location:  40.46°N, 83.08°W
Report Text: KMNN 241353Z AUTO 19023G32KT 9SM FEW025 SCT036 BKN075 15/12 A2925 RMK AO2 PK WND 19037/1333 SLP905 T01500117 TSNO
Loading
Personal Weather Stations






























Interactive Weather Map New forecast layout! Learn more

10-Day Weather Forecast

Advertisements
Track Severe Weather on mobile